createdAt,value
2023-03-03T00:00:47.859Z,96793.84
2023-03-03T00:03:18.684Z,96783.13
2023-03-03T00:05:46.292Z,96784.22
2023-03-03T00:11:03.244Z,96793.47
2023-03-03T00:13:32.194Z,96792.38
2023-03-03T00:16:15.193Z,96779.06
2023-03-03T00:18:44.030Z,96789.94
2023-03-03T00:21:29.175Z,96784.50
2023-03-03T00:24:04.512Z,96782.72
2023-03-03T00:26:38.758Z,96780.94
2023-03-03T00:29:27.653Z,96790.34
2023-03-03T00:31:55.276Z,96796.44
2023-03-03T00:34:27.789Z,96798.91
2023-03-03T00:36:57.164Z,96791.00
2023-03-03T00:39:30.182Z,96797.69
2023-03-03T00:42:00.765Z,96794.81
2023-03-03T00:44:40.341Z,96799.16
2023-03-03T00:47:30.712Z,96804.59
2023-03-03T00:50:22.173Z,96797.81
2023-03-03T00:53:00.188Z,96788.56
2023-03-03T00:55:27.711Z,96790.34
2023-03-03T00:57:56.604Z,96791.56
2023-03-03T01:00:24.396Z,96791.28
2023-03-03T01:02:52.946Z,96794.81
2023-03-03T01:05:21.641Z,96788.84
2023-03-03T01:07:49.163Z,96792.91
2023-03-03T01:10:16.913Z,96790.72
2023-03-03T01:12:44.581Z,96786.94
2023-03-03T01:15:15.709Z,96785.03
2023-03-03T01:17:43.720Z,96785.72
2023-03-03T01:20:13.703Z,96779.63
2023-03-03T01:22:41.298Z,96778.53
2023-03-03T01:25:09.877Z,96774.16
2023-03-03T01:27:37.929Z,96768.44
2023-03-03T01:30:06.118Z,96764.38
2023-03-03T01:32:35.513Z,96772.28
2023-03-03T01:35:03.081Z,96766.03
2023-03-03T01:37:30.607Z,96769.28
2023-03-03T01:39:58.166Z,96768.44
2023-03-03T01:42:29.160Z,96771.59
2023-03-03T01:45:20.126Z,96767.91
2023-03-03T01:47:54.849Z,96761.66
2023-03-03T01:50:39.734Z,96770.75
2023-03-03T01:53:14.661Z,96767.63
2023-03-03T01:55:44.568Z,96768.19
2023-03-03T01:58:15.301Z,96768.44
2023-03-03T02:00:47.323Z,96769.22
2023-03-03T02:03:16.260Z,96759.16
2023-03-03T02:05:44.630Z,96759.31
2023-03-03T02:08:17.579Z,96769.22
2023-03-03T02:10:47.072Z,96759.19
2023-03-03T02:13:15.529Z,96756.72
2023-03-03T02:15:43.052Z,96754.03
2023-03-03T02:18:14.188Z,96758.38
2023-03-03T02:20:54.916Z,96744.78
2023-03-03T02:23:27.292Z,96745.59
2023-03-03T02:26:06.613Z,96754.69
2023-03-03T02:28:36.401Z,96752.13
2023-03-03T02:31:04.563Z,96748.44
2023-03-03T02:33:32.191Z,96746.41
2023-03-03T02:35:59.781Z,96738.91
2023-03-03T02:38:30.773Z,96748.31
2023-03-03T02:41:09.211Z,96745.31
2023-03-03T02:43:44.908Z,96747.47
2023-03-03T02:46:12.414Z,96752.50
2023-03-03T02:48:39.943Z,96748.13
2023-03-03T02:51:07.460Z,96751.00
2023-03-03T02:53:34.943Z,96748.00
2023-03-03T02:56:04.400Z,96753.47
2023-03-03T02:58:32.101Z,96762.16
2023-03-03T03:00:59.684Z,96760.53
2023-03-03T03:03:27.316Z,96760.53
2023-03-03T03:05:54.878Z,96757.97
2023-03-03T03:08:22.414Z,96755.38
2023-03-03T03:10:50.166Z,96755.38
2023-03-03T03:13:19.035Z,96766.66
2023-03-03T03:15:46.941Z,96767.06
2023-03-03T03:18:14.534Z,96760.94
2023-03-03T03:20:42.271Z,96757.53
2023-03-03T03:23:10.714Z,96760.41
2023-03-03T03:25:45.143Z,96759.19
2023-03-03T03:28:13.322Z,96757.16
2023-03-03T03:30:42.672Z,96766.00
2023-03-03T03:33:10.389Z,96760.03
2023-03-03T03:35:40.398Z,96761.94
2023-03-03T03:38:07.976Z,96763.53
2023-03-03T03:40:35.471Z,96768.69
2023-03-03T03:43:02.940Z,96767.09
2023-03-03T03:45:30.479Z,96776.44
2023-03-03T03:47:59.605Z,96764.22
2023-03-03T03:50:27.673Z,96766.53
2023-03-03T03:52:55.281Z,96773.59
2023-03-03T03:55:23.522Z,96773.31
2023-03-03T03:57:51.340Z,96771.97
2023-03-03T04:00:19.441Z,96773.88
2023-03-03T04:02:47.050Z,96772.25
2023-03-03T04:05:16.001Z,96781.22
2023-03-03T04:07:43.502Z,96771.03
2023-03-03T04:10:12.053Z,96776.06
2023-03-03T04:12:39.569Z,96785.84
2023-03-03T04:15:08.884Z,96774.97
2023-03-03T04:17:36.950Z,96781.25
2023-03-03T04:20:05.345Z,96769.16
2023-03-03T04:22:36.032Z,96771.97
2023-03-03T04:25:05.614Z,96770.63
2023-03-03T04:27:33.147Z,96779.03
2023-03-03T04:30:00.994Z,96777.44
2023-03-03T04:32:28.719Z,96775.78
2023-03-03T04:35:07.232Z,96776.88
2023-03-03T04:37:38.753Z,96777.28
2023-03-03T04:40:08.115Z,96781.38
2023-03-03T04:42:35.856Z,96786.38
2023-03-03T04:45:03.642Z,96776.88
2023-03-03T04:47:31.186Z,96779.31
2023-03-03T04:49:58.759Z,96780.09
2023-03-03T04:52:26.445Z,96790.25
2023-03-03T04:54:55.294Z,96789.69
2023-03-03T04:57:23.123Z,96792.09
2023-03-03T04:59:51.481Z,96792.66
2023-03-03T05:02:19.218Z,96799.53
2023-03-03T05:04:46.898Z,96791.13
2023-03-03T05:07:14.451Z,96796.56
2023-03-03T05:09:41.956Z,96801.13
2023-03-03T05:12:10.807Z,96801.97
2023-03-03T05:14:39.558Z,96803.47
2023-03-03T05:17:07.057Z,96798.72
2023-03-03T05:19:34.924Z,96804.56
2023-03-03T05:22:02.999Z,96801.72
2023-03-03T05:24:30.484Z,96804.22
2023-03-03T05:26:58.012Z,96805.72
2023-03-03T05:29:28.836Z,96809.00
2023-03-03T05:31:56.366Z,96808.06
2023-03-03T05:34:23.892Z,96812.03
2023-03-03T05:36:51.677Z,96814.59
2023-03-03T05:39:19.196Z,96824.06
2023-03-03T05:41:46.683Z,96819.16
2023-03-03T05:44:14.205Z,96830.00
2023-03-03T05:46:43.477Z,96826.44
2023-03-03T05:49:10.980Z,96827.22
2023-03-03T05:51:38.550Z,96829.63
2023-03-03T05:54:06.425Z,96824.88
2023-03-03T05:56:33.927Z,96827.44
2023-03-03T05:59:01.554Z,96822.59
2023-03-03T06:01:29.404Z,96827.91
2023-03-03T06:03:58.382Z,96833.09
2023-03-03T06:06:26.077Z,96835.69
2023-03-03T06:08:56.138Z,96839.81
2023-03-03T06:11:24.733Z,96841.38
2023-03-03T06:13:52.314Z,96836.91
2023-03-03T06:16:20.909Z,96839.88
2023-03-03T06:18:48.452Z,96838.94
2023-03-03T06:21:17.580Z,96849.41
2023-03-03T06:23:45.165Z,96848.84
2023-03-03T06:26:12.654Z,96848.16
2023-03-03T06:28:40.198Z,96851.41
2023-03-03T06:31:07.745Z,96853.47
2023-03-03T06:33:35.297Z,96861.66
2023-03-03T06:36:05.806Z,96865.72
2023-03-03T06:38:34.832Z,96864.22
2023-03-03T06:41:07.211Z,96861.09
2023-03-03T06:43:34.859Z,96877.66
2023-03-03T06:46:02.482Z,96870.31
2023-03-03T06:48:30.939Z,96875.59
2023-03-03T06:50:58.883Z,96877.91
2023-03-03T06:53:27.504Z,96879.00
2023-03-03T06:55:59.100Z,96883.47
2023-03-03T06:58:27.565Z,96876.13
2023-03-03T07:00:57.964Z,96880.59
2023-03-03T07:03:28.244Z,96881.97
2023-03-03T07:05:55.744Z,96889.88
2023-03-03T07:08:25.423Z,96879.03
2023-03-03T07:10:54.082Z,96889.06
2023-03-03T07:13:25.208Z,96884.59
2023-03-03T07:15:55.183Z,96890.69
2023-03-03T07:18:40.301Z,96893.25
2023-03-03T07:21:17.351Z,96901.56
2023-03-03T07:23:46.100Z,96894.38
2023-03-03T07:26:15.891Z,96891.94
2023-03-03T07:28:46.269Z,96898.31
2023-03-03T07:31:34.994Z,96891.25
2023-03-03T07:34:06.059Z,96890.44
2023-03-03T07:36:38.288Z,96903.06
2023-03-03T07:39:26.429Z,96893.19
2023-03-03T07:41:55.589Z,96894.41
2023-03-03T07:44:32.734Z,96899.69
2023-03-03T07:47:00.705Z,96904.84
2023-03-03T07:49:36.622Z,96906.91
2023-03-03T07:52:22.752Z,96913.72
2023-03-03T07:54:50.400Z,96917.66
2023-03-03T07:57:23.296Z,96905.03
2023-03-03T07:59:54.122Z,96914.25
2023-03-03T08:02:36.147Z,96908.41
2023-03-03T08:05:27.562Z,96912.78
2023-03-03T08:07:56.565Z,96912.94
2023-03-03T08:10:36.132Z,96910.75
2023-03-03T08:13:16.384Z,96913.19
2023-03-03T08:15:46.664Z,96915.22
2023-03-03T08:18:23.633Z,96912.25
2023-03-03T08:20:53.738Z,96906.25
2023-03-03T08:23:21.909Z,96916.72
2023-03-03T08:25:51.028Z,96917.38
2023-03-03T08:28:19.695Z,96915.91
2023-03-03T08:30:49.834Z,96926.63
2023-03-03T08:33:18.137Z,96917.25
2023-03-03T08:35:46.814Z,96929.63
2023-03-03T08:38:16.397Z,96932.22
2023-03-03T08:40:44.296Z,96937.66
2023-03-03T08:43:14.513Z,96936.16
2023-03-03T08:45:42.041Z,96931.25
2023-03-03T08:48:10.994Z,96932.31
2023-03-03T08:50:39.505Z,96933.69
2023-03-03T08:53:07.979Z,96935.84
2023-03-03T08:55:35.676Z,96930.66
2023-03-03T08:58:03.576Z,96936.66
2023-03-03T09:00:31.280Z,96935.84
2023-03-03T09:03:01.452Z,96942.50
2023-03-03T09:08:13.740Z,96936.03
2023-03-03T09:10:41.717Z,96934.00
2023-03-03T09:21:54.931Z,96953.84
2023-03-03T09:24:36.790Z,96951.94
2023-03-03T09:27:16.331Z,96951.66
2023-03-03T09:32:34.727Z,96956.00
2023-03-03T09:35:27.491Z,96970.44
2023-03-03T09:37:56.444Z,96976.44
2023-03-03T09:40:48.689Z,96968.00
2023-03-03T09:43:31.449Z,96969.91
2023-03-03T09:46:05.300Z,96971.56
2023-03-03T09:48:48.607Z,96970.31
2023-03-03T09:51:47.887Z,96964.16
2023-03-03T09:54:40.733Z,96964.69
2023-03-03T09:57:15.832Z,96973.50
2023-03-03T10:00:46.742Z,96972.78
2023-03-03T10:03:40.818Z,96966.06
2023-03-03T10:06:28.921Z,96969.63
2023-03-03T10:09:38.695Z,96974.94
2023-03-03T10:12:37.844Z,96976.72
2023-03-03T10:15:48.070Z,96976.72
2023-03-03T10:21:38.395Z,96968.31
2023-03-03T10:24:37.264Z,96968.16
2023-03-03T10:30:58.449Z,96968.00
2023-03-03T10:33:44.691Z,96968.53
2023-03-03T10:36:27.896Z,96972.75
2023-03-03T10:39:12.197Z,96966.63
2023-03-03T10:41:53.617Z,96968.44
2023-03-03T10:44:41.901Z,96967.59
2023-03-03T10:47:33.571Z,96970.53
2023-03-03T10:50:13.906Z,96967.81
2023-03-03T10:52:50.484Z,96966.38
2023-03-03T10:55:47.550Z,96969.06
2023-03-03T10:58:49.922Z,96970.47
2023-03-03T11:04:30.627Z,96969.63
2023-03-03T11:07:06.956Z,96976.31
2023-03-03T11:10:03.434Z,96978.97
2023-03-03T11:12:49.943Z,96974.16
2023-03-03T11:15:55.317Z,96982.34
2023-03-03T11:18:34.930Z,96984.97
2023-03-03T11:21:26.022Z,96979.16
2023-03-03T11:24:03.366Z,96981.16
2023-03-03T11:27:00.330Z,96983.81
2023-03-03T11:29:41.039Z,96973.94
2023-03-03T11:32:21.302Z,96970.91
2023-03-03T11:35:02.137Z,96969.66
2023-03-03T11:37:40.924Z,96969.38
2023-03-03T11:40:17.483Z,96974.63
2023-03-03T11:42:57.222Z,96958.25
2023-03-03T11:45:30.679Z,96952.25
2023-03-03T11:48:13.079Z,96960.22
2023-03-03T11:50:47.625Z,96945.91
2023-03-03T11:53:29.050Z,96955.81
2023-03-03T11:55:59.674Z,96948.94
2023-03-03T11:58:35.058Z,96946.94
2023-03-03T12:01:17.714Z,96944.63
2023-03-03T12:03:50.332Z,96941.31
2023-03-03T12:06:27.356Z,96936.06
2023-03-03T12:09:04.542Z,96926.66
2023-03-03T12:11:37.885Z,96934.59
2023-03-03T12:14:18.940Z,96938.28
2023-03-03T12:16:56.540Z,96932.91
2023-03-03T12:19:35.296Z,96929.19
2023-03-03T12:22:13.322Z,96927.41
2023-03-03T12:24:51.039Z,96922.13
2023-03-03T12:27:24.538Z,96932.13
2023-03-03T12:30:04.995Z,96930.97
2023-03-03T12:32:49.966Z,96924.78
2023-03-03T12:35:27.179Z,96925.19
2023-03-03T12:38:05.215Z,96927.22
2023-03-03T12:40:35.490Z,96916.66
2023-03-03T12:43:16.151Z,96923.34
2023-03-03T12:45:56.226Z,96919.88
2023-03-03T12:48:36.867Z,96922.06
2023-03-03T12:51:11.839Z,96914.56
2023-03-03T12:53:59.911Z,96915.97
2023-03-03T12:56:32.933Z,96912.72
2023-03-03T12:59:05.753Z,96910.47
2023-03-03T13:01:43.415Z,96905.00
2023-03-03T13:04:18.492Z,96910.59
2023-03-03T13:06:53.363Z,96909.59
2023-03-03T13:09:32.284Z,96910.41
2023-03-03T13:12:11.959Z,96908.34
2023-03-03T13:14:48.087Z,96917.91
2023-03-03T13:17:22.216Z,96914.31
2023-03-03T13:19:56.582Z,96911.47
2023-03-03T13:22:38.495Z,96911.63
2023-03-03T13:25:21.969Z,96901.63
2023-03-03T13:27:53.238Z,96899.88
2023-03-03T13:30:23.848Z,96902.56
2023-03-03T13:32:56.024Z,96895.16
2023-03-03T13:35:33.511Z,96898.63
2023-03-03T13:38:03.554Z,96892.91
2023-03-03T13:40:42.333Z,96892.78
2023-03-03T13:43:18.045Z,96887.59
2023-03-03T13:45:55.259Z,96877.00
2023-03-03T13:48:43.109Z,96884.50
2023-03-03T13:51:20.830Z,96881.94
2023-03-03T13:53:56.353Z,96881.50
2023-03-03T13:56:38.913Z,96873.97
2023-03-03T13:59:19.507Z,96863.41
2023-03-03T14:01:58.968Z,96877.06
2023-03-03T14:04:39.378Z,96872.00
2023-03-03T14:07:15.370Z,96866.53
2023-03-03T14:09:56.737Z,96855.22
2023-03-03T14:12:35.302Z,96860.81
2023-03-03T14:15:16.474Z,96859.03
2023-03-03T14:18:03.720Z,96868.13
2023-03-03T14:20:33.209Z,96862.44
2023-03-03T14:23:03.272Z,96865.81
2023-03-03T14:25:55.267Z,96867.34
2023-03-03T14:28:26.073Z,96861.88
2023-03-03T14:30:58.984Z,96867.84
2023-03-03T14:33:32.379Z,96863.38
2023-03-03T14:36:06.022Z,96862.69
2023-03-03T14:38:44.226Z,96866.84
2023-03-03T14:41:17.795Z,96865.44
2023-03-03T14:43:47.688Z,96859.41
2023-03-03T14:46:36.882Z,96860.53
2023-03-03T14:49:07.403Z,96854.50
2023-03-03T14:51:42.429Z,96857.13
2023-03-03T14:54:21.371Z,96860.13
2023-03-03T14:57:01.341Z,96861.84
2023-03-03T14:59:31.678Z,96863.75
2023-03-03T15:02:14.255Z,96861.69
2023-03-03T15:04:41.852Z,96861.91
2023-03-03T15:07:28.603Z,96859.06
2023-03-03T15:09:56.142Z,96856.13
2023-03-03T15:12:25.414Z,96855.47
2023-03-03T15:15:03.466Z,96857.28
2023-03-03T15:17:36.517Z,96848.63
2023-03-03T15:20:24.805Z,96851.22
2023-03-03T15:22:57.376Z,96844.56
2023-03-03T15:25:42.339Z,96846.38
2023-03-03T15:28:36.473Z,96838.63
2023-03-03T15:31:15.763Z,96835.38
2023-03-03T15:33:52.730Z,96831.31
2023-03-03T15:36:30.931Z,96838.13
2023-03-03T15:39:09.512Z,96842.09
2023-03-03T15:41:41.850Z,96845.59
2023-03-03T15:44:17.847Z,96843.69
2023-03-03T15:46:59.817Z,96838.59
2023-03-03T15:49:54.407Z,96836.16
2023-03-03T15:52:34.905Z,96836.50
2023-03-03T15:55:21.084Z,96841.47
2023-03-03T15:58:01.762Z,96848.66
2023-03-03T16:00:38.736Z,96850.00
2023-03-03T16:03:15.275Z,96846.66
2023-03-03T16:05:53.358Z,96852.81
2023-03-03T16:08:26.165Z,96850.91
2023-03-03T16:11:03.611Z,96850.00
2023-03-03T16:13:42.634Z,96850.72
2023-03-03T16:16:19.761Z,96852.41
2023-03-03T16:19:00.356Z,96856.06
2023-03-03T16:21:49.477Z,96856.78
2023-03-03T16:24:29.950Z,96862.69
2023-03-03T16:27:06.371Z,96865.84
2023-03-03T16:29:47.892Z,96876.16
2023-03-03T16:32:22.812Z,96877.66
2023-03-03T16:34:59.169Z,96877.53
2023-03-03T16:37:32.646Z,96879.88
2023-03-03T16:40:09.344Z,96885.09
2023-03-03T16:42:36.892Z,96889.72
2023-03-03T16:45:22.168Z,96894.16
2023-03-03T16:48:12.743Z,96902.50
2023-03-03T16:50:47.111Z,96895.34
2023-03-03T16:53:30.709Z,96897.50
2023-03-03T16:56:07.853Z,96899.63
2023-03-03T16:58:47.302Z,96912.38
2023-03-03T17:01:26.136Z,96912.88
2023-03-03T17:04:04.252Z,96912.25
2023-03-03T17:06:43.463Z,96913.09
2023-03-03T17:09:39.597Z,96913.94
2023-03-03T17:12:31.550Z,96921.59
2023-03-03T17:15:13.505Z,96927.78
2023-03-03T17:17:45.351Z,96924.88
2023-03-03T17:20:21.134Z,96924.72
2023-03-03T17:22:58.877Z,96939.38
2023-03-03T17:25:37.376Z,96933.53
2023-03-03T17:28:18.037Z,96939.09
2023-03-03T17:30:51.727Z,96948.00
2023-03-03T17:33:29.696Z,96947.69
2023-03-03T17:36:18.267Z,96955.19
2023-03-03T17:38:58.352Z,96961.84
2023-03-03T17:41:33.865Z,96962.66
2023-03-03T17:44:06.494Z,96966.38
2023-03-03T17:46:40.513Z,96966.56
2023-03-03T17:49:42.037Z,96971.75
2023-03-03T17:52:33.666Z,96973.53
2023-03-03T17:55:20.702Z,96970.44
2023-03-03T17:58:03.493Z,96977.56
2023-03-03T18:00:41.020Z,96979.97
2023-03-03T18:03:27.484Z,96983.97
2023-03-03T18:06:15.743Z,96983.97
2023-03-03T18:09:14.519Z,96975.81
2023-03-03T18:11:59.864Z,96986.84
2023-03-03T18:15:07.353Z,96984.22
2023-03-03T18:17:37.977Z,96979.66
2023-03-03T18:20:41.805Z,96990.31
2023-03-03T18:23:33.924Z,96981.81
2023-03-03T18:26:03.628Z,96986.00
2023-03-03T18:28:46.835Z,96993.22
2023-03-03T18:31:24.904Z,96989.75
2023-03-03T18:34:08.236Z,96992.16
2023-03-03T18:36:38.532Z,96995.53
2023-03-03T18:39:07.992Z,97004.22
2023-03-03T18:42:07.230Z,97006.97
2023-03-03T18:44:34.868Z,97015.47
2023-03-03T18:47:02.440Z,97016.91
2023-03-03T18:50:08.515Z,97019.34
2023-03-03T18:52:36.969Z,97022.25
2023-03-03T18:55:27.194Z,97018.53
2023-03-03T18:58:23.853Z,97027.22
2023-03-03T19:00:53.480Z,97030.84
2023-03-03T19:03:28.326Z,97034.16
2023-03-03T19:05:57.826Z,97031.19
2023-03-03T19:08:27.413Z,97040.75
2023-03-03T19:10:57.525Z,97042.69
2023-03-03T19:13:46.695Z,97042.31
2023-03-03T19:16:36.824Z,97041.22
2023-03-03T19:19:12.207Z,97047.00
2023-03-03T19:21:42.647Z,97045.50
2023-03-03T19:24:33.691Z,97050.44
2023-03-03T19:27:28.559Z,97051.66
2023-03-03T19:30:20.915Z,97049.78
2023-03-03T19:33:12.974Z,97049.28
2023-03-03T19:35:52.573Z,97053.91
2023-03-03T19:38:28.718Z,97050.09
2023-03-03T19:41:08.817Z,97049.72
2023-03-03T19:43:43.161Z,97044.59
2023-03-03T19:46:32.629Z,97050.88
2023-03-03T19:49:07.592Z,97047.66
2023-03-03T19:51:40.853Z,97045.06
2023-03-03T19:54:23.564Z,97050.28
2023-03-03T19:56:53.761Z,97059.53
2023-03-03T19:59:31.400Z,97059.84
2023-03-03T20:02:16.042Z,97053.97
2023-03-03T20:04:58.011Z,97050.03
2023-03-03T20:07:33.674Z,97062.56
2023-03-03T20:10:12.254Z,97057.00
2023-03-03T20:12:59.830Z,97058.47
2023-03-03T20:15:39.318Z,97059.28
2023-03-03T20:18:34.906Z,97062.56
2023-03-03T20:21:09.091Z,97063.22
2023-03-03T20:23:46.091Z,97062.13
2023-03-03T20:26:17.639Z,97066.88
2023-03-03T20:29:03.617Z,97062.66
2023-03-03T20:31:38.162Z,97059.66
2023-03-03T20:34:15.033Z,97059.91
2023-03-03T20:36:53.285Z,97062.09
2023-03-03T20:39:36.188Z,97069.97
2023-03-03T20:42:12.173Z,97069.03
2023-03-03T20:44:52.603Z,97068.75
2023-03-03T20:47:32.122Z,97070.91
2023-03-03T20:50:16.595Z,97064.22
2023-03-03T20:52:56.658Z,97071.41
2023-03-03T20:55:32.318Z,97073.47
2023-03-03T20:58:05.867Z,97067.59
2023-03-03T21:00:38.146Z,97070.44
2023-03-03T21:03:15.193Z,97071.50
2023-03-03T21:06:01.582Z,97066.63
2023-03-03T21:08:54.302Z,97070.28
2023-03-03T21:11:25.316Z,97066.88
2023-03-03T21:13:54.416Z,97073.41
2023-03-03T21:16:33.277Z,97069.38
2023-03-03T21:19:03.262Z,97064.22
2023-03-03T21:21:34.840Z,97075.34
2023-03-03T21:24:02.590Z,97077.81
2023-03-03T21:26:49.150Z,97073.19
2023-03-03T21:29:24.981Z,97077.53
2023-03-03T21:31:55.065Z,97076.44
2023-03-03T21:34:29.087Z,97074.09
2023-03-03T21:36:58.995Z,97073.69
2023-03-03T21:39:31.844Z,97081.00
2023-03-03T21:42:00.684Z,97080.03
2023-03-03T21:44:46.841Z,97083.41
2023-03-03T21:47:16.047Z,97078.75
2023-03-03T21:49:44.437Z,97083.91
2023-03-03T21:52:16.337Z,97087.19
2023-03-03T21:54:44.417Z,97085.31
2023-03-03T21:57:12.594Z,97087.19
2023-03-03T21:59:40.662Z,97086.88
2023-03-03T22:02:09.026Z,97078.16
2023-03-03T22:04:38.390Z,97081.25
2023-03-03T22:07:06.301Z,97075.66
2023-03-03T22:09:35.575Z,97074.97
2023-03-03T22:12:03.280Z,97084.47
2023-03-03T22:14:30.806Z,97081.19
2023-03-03T22:16:58.432Z,97081.31
2023-03-03T22:19:26.174Z,97082.94
2023-03-03T22:21:53.701Z,97082.25
2023-03-03T22:24:21.394Z,97089.31
2023-03-03T22:26:50.292Z,97095.41
2023-03-03T22:29:22.678Z,97092.31
2023-03-03T22:31:50.258Z,97090.63
2023-03-03T22:34:18.046Z,97094.91
2023-03-03T22:36:45.616Z,97091.25
2023-03-03T22:39:13.142Z,97090.66
2023-03-03T22:41:40.678Z,97096.09
2023-03-03T22:44:09.560Z,97092.81
2023-03-03T22:46:37.153Z,97087.59
2023-03-03T22:49:04.658Z,97093.09
2023-03-03T22:51:32.159Z,97092.56
2023-03-03T22:53:59.674Z,97087.84
2023-03-03T22:56:27.199Z,97094.25
2023-03-03T22:58:54.718Z,97096.94
2023-03-03T23:01:23.601Z,97100.44
2023-03-03T23:03:51.147Z,97098.94
2023-03-03T23:06:18.682Z,97098.50
2023-03-03T23:08:46.176Z,97109.03
2023-03-03T23:11:13.654Z,97102.75
2023-03-03T23:13:41.180Z,97101.34
2023-03-03T23:16:08.980Z,97094.78
2023-03-03T23:18:37.909Z,97105.34
2023-03-03T23:21:05.703Z,97102.19
2023-03-03T23:23:33.271Z,97106.78
2023-03-03T23:26:00.854Z,97104.44
2023-03-03T23:28:28.406Z,97100.34
2023-03-03T23:30:55.940Z,97095.09
2023-03-03T23:33:23.905Z,97107.50
2023-03-03T23:35:52.894Z,97107.75
2023-03-03T23:38:20.559Z,97108.56
2023-03-03T23:40:48.144Z,97098.97
2023-03-03T23:43:16.045Z,97104.00
2023-03-03T23:45:43.638Z,97107.63
2023-03-03T23:48:11.341Z,97107.16
2023-03-03T23:50:39.233Z,97107.66
2023-03-03T23:53:08.887Z,97111.41
2023-03-03T23:55:37.583Z,97113.63
2023-03-03T23:58:05.515Z,97112.66
